Time;durP1;ratioP1;P1;durP2;ratioP2;P2;SDS_P1;SDS_P2;PMS_P1;PMS_P2;Temp;Humidity;BMP_temperature;BMP_pressure;BME280_temperature;BME280_humidity;BME280_pressure;Samples;Min_cycle;Max_cycle;Signal;HPM_P1;HPM_P2
2024/03/21 00:01:54;;;;;;;10.50;7.60;;;;;;;2.24;100.00;100873.08;102626;1298;601381;-58
2024/03/21 00:04:22;;;;;;;8.60;7.80;;;;;;;2.18;100.00;100888.13;105175;1269;59881;-57
2024/03/21 00:06:49;;;;;;;8.70;7.80;;;;;;;2.17;100.00;100876.09;105133;1272;60629;-58
2024/03/21 00:09:16;;;;;;;9.30;6.90;;;;;;;2.15;100.00;100870.75;105375;1269;72982;-59
2024/03/21 00:11:43;;;;;;;10.50;8.00;;;;;;;2.13;100.00;100864.54;105062;1273;66885;-58
2024/03/21 00:14:10;;;;;;;7.70;6.70;;;;;;;2.12;100.00;100857.65;105040;1275;74880;-57
2024/03/21 00:16:37;;;;;;;11.00;7.30;;;;;;;2.12;100.00;100856.06;105042;1273;139095;-59
2024/03/21 00:19:05;;;;;;;8.70;7.90;;;;;;;2.11;100.00;100855.52;105159;1269;59739;-59
2024/03/21 00:21:32;;;;;;;11.30;10.00;;;;;;;2.12;100.00;100848.98;105181;1266;73102;-59
2024/03/21 00:24:01;;;;;;;15.10;9.40;;;;;;;2.14;100.00;100846.12;105034;1266;66321;-59
2024/03/21 00:26:29;;;;;;;15.70;9.70;;;;;;;2.13;100.00;100846.30;105272;1271;71340;-58
2024/03/21 00:28:56;;;;;;;9.40;8.40;;;;;;;2.14;100.00;100844.01;105201;1267;60498;-60
2024/03/21 00:31:23;;;;;;;11.80;9.70;;;;;;;2.14;100.00;100842.23;105244;1272;60416;-59
2024/03/21 00:33:51;;;;;;;15.90;9.90;;;;;;;2.13;100.00;100841.17;105201;1268;71810;-60
2024/03/21 00:36:18;;;;;;;10.20;8.20;;;;;;;2.11;100.00;100840.47;105160;1272;65556;-59
2024/03/21 00:38:47;;;;;;;11.20;8.90;;;;;;;2.08;100.00;100838.86;105249;1270;72665;-58
2024/03/21 00:41:14;;;;;;;12.00;7.70;;;;;;;2.07;100.00;100835.66;105336;1271;60582;-61
2024/03/21 00:43:41;;;;;;;9.10;8.00;;;;;;;2.06;100.00;100831.23;105084;1271;60594;-60
2024/03/21 00:46:08;;;;;;;10.30;6.90;;;;;;;2.05;100.00;100832.45;105130;1267;73845;-59
2024/03/21 00:48:36;;;;;;;9.10;7.30;;;;;;;2.04;100.00;100830.16;105096;1272;65772;-59
2024/03/21 00:51:03;;;;;;;8.80;8.00;;;;;;;2.04;100.00;100828.22;105071;1266;73095;-60
2024/03/21 00:53:31;;;;;;;10.30;7.50;;;;;;;2.05;100.00;100823.61;105201;1272;61493;-59
2024/03/21 00:55:58;;;;;;;11.10;7.00;;;;;;;2.06;100.00;100820.08;105208;1266;61526;-59
2024/03/21 00:58:25;;;;;;;7.10;6.20;;;;;;;2.06;100.00;100813.87;105134;1270;72579;-60
2024/03/21 01:00:52;;;;;;;10.80;8.30;;;;;;;2.07;100.00;100814.59;105173;1272;67259;-60
2024/03/21 01:03:20;;;;;;;14.10;7.90;;;;;;;2.06;100.00;100811.92;105158;1275;72741;-60
2024/03/21 01:05:51;;;;;;;10.00;8.80;;;;;;;2.05;100.00;100810.86;105185;1266;60502;-59
2024/03/21 01:08:18;;;;;;;16.50;9.10;;;;;;;2.05;100.00;100811.58;106228;1266;61306;-58
2024/03/21 01:10:49;;;;;;;11.00;8.50;;;;;;;2.02;100.00;100809.63;105230;1270;71676;-60
2024/03/21 01:13:18;;;;;;;12.10;8.00;;;;;;;1.97;100.00;100815.45;105780;1272;65668;-60
2024/03/21 01:15:45;;;;;;;22.60;8.10;;;;;;;1.94;100.00;100809.61;105201;1271;72710;-60
2024/03/21 01:18:13;;;;;;;10.00;8.60;;;;;;;1.92;100.00;100810.84;105273;1270;60193;-60
2024/03/21 01:20:41;;;;;;;8.30;6.70;;;;;;;1.89;100.00;100809.94;105214;1267;62550;-60
2024/03/21 01:23:08;;;;;;;10.50;7.30;;;;;;;1.87;100.00;100810.46;105109;1266;74362;-59
2024/03/21 01:25:37;;;;;;;10.90;8.10;;;;;;;1.85;100.00;100812.59;105155;1274;66610;-59
2024/03/21 01:28:04;;;;;;;10.20;7.70;;;;;;;1.83;100.00;100813.10;105196;1267;72690;-60
2024/03/21 01:30:32;;;;;;;10.30;8.40;;;;;;;1.80;100.00;100809.19;105187;1266;60933;-59
2024/03/21 01:33:00;;;;;;;11.40;7.70;;;;;;;1.78;100.00;100804.06;105588;1264;60658;-59
2024/03/21 01:35:27;;;;;;;10.90;9.10;;;;;;;1.77;100.00;100799.64;105355;1269;74369;-59
2024/03/21 01:37:55;;;;;;;10.30;9.20;;;;;;;1.77;100.00;100803.53;105396;1263;65169;-59
2024/03/21 01:40:22;;;;;;;14.50;9.80;;;;;;;1.74;100.00;100803.85;105407;1269;72760;-60
2024/03/21 01:42:49;;;;;;;12.40;10.40;;;;;;;1.70;100.00;100802.26;105400;1268;60542;-60
2024/03/21 01:45:17;;;;;;;18.50;11.90;;;;;;;1.65;100.00;100802.05;105976;1267;60450;-60
2024/03/21 01:47:44;;;;;;;14.50;9.90;;;;;;;1.58;100.00;100801.31;105428;1266;72463;-60
2024/03/21 01:50:12;;;;;;;16.60;11.10;;;;;;;1.51;100.00;100797.93;105386;1263;66925;-60
2024/03/21 01:52:40;;;;;;;14.90;10.10;;;;;;;1.47;100.00;100798.08;105242;1265;72867;-60
2024/03/21 01:55:08;;;;;;;10.70;9.50;;;;;;;1.46;100.00;100799.30;105302;1269;61017;-60
2024/03/21 01:57:39;;;;;;;16.10;10.50;;;;;;;1.45;100.00;100801.95;106612;1263;60600;-60
2024/03/21 02:00:08;;;;;;;18.90;10.80;;;;;;;1.45;100.00;100801.23;105332;1266;73934;-60
2024/03/21 02:02:35;;;;;;;17.80;10.40;;;;;;;1.45;100.00;100801.59;108433;1263;66966;-60
2024/03/21 02:05:03;;;;;;;12.30;9.50;;;;;;;1.45;100.00;100801.23;106626;1269;71431;-60
2024/03/21 02:07:31;;;;;;;16.00;11.20;;;;;;;1.44;100.00;100800.02;108462;1265;58450;-57
2024/03/21 02:09:58;;;;;;;15.20;10.80;;;;;;;1.41;100.00;100801.05;108460;1263;58902;-56
2024/03/21 02:12:38;;;;;;;12.40;9.50;;;;;;;1.38;100.00;100795.55;108371;1263;73817;-58
2024/03/21 02:15:06;;;;;;;15.20;10.80;;;;;;;1.35;100.00;100797.14;108539;1263;66792;-59
2024/03/21 02:17:33;;;;;;;17.40;10.90;;;;;;;1.32;100.00;100801.52;108265;1265;73925;-57
2024/03/21 02:20:00;;;;;;;17.70;10.60;;;;;;;1.28;100.00;100798.33;108529;1263;59324;-58
2024/03/21 02:22:36;;;;;;;15.10;10.00;;;;;;;1.24;100.00;100796.35;108658;1259;58992;-59
2024/03/21 02:25:11;;;;;;;15.90;10.80;;;;;;;1.20;100.00;100799.86;105644;1260;73903;-57
2024/03/21 02:27:39;;;;;;;12.70;9.00;;;;;;;1.16;100.00;100798.43;108791;1259;65348;-57
2024/03/21 02:30:08;;;;;;;13.30;9.30;;;;;;;1.16;100.00;100792.77;108672;1259;71800;-59
2024/03/21 02:32:36;;;;;;;9.60;8.40;;;;;;;1.14;100.00;100790.46;108689;1259;63006;-57
2024/03/21 02:35:06;;;;;;;14.80;8.70;;;;;;;1.12;100.00;100789.73;108393;1259;59158;-57
2024/03/21 02:37:34;;;;;;;16.40;9.10;;;;;;;1.13;100.00;100790.98;107597;1259;74436;-56
2024/03/21 02:40:01;;;;;;;13.50;9.10;;;;;;;1.12;100.00;100787.78;105704;1265;65791;-56
2024/03/21 02:42:28;;;;;;;12.70;8.10;;;;;;;1.13;100.00;100791.69;105844;1264;72778;-58
2024/03/21 02:44:55;;;;;;;12.60;8.90;;;;;;;1.13;100.00;100792.56;105674;1264;60547;-56
2024/03/21 02:47:22;;;;;;;20.80;9.80;;;;;;;1.14;100.00;100797.00;105636;1259;60915;-59
2024/03/21 02:49:51;;;;;;;11.20;9.10;;;;;;;1.15;100.00;100797.89;105657;1260;72560;-58
2024/03/21 02:52:18;;;;;;;12.90;9.40;;;;;;;1.17;100.00;100799.50;108617;1260;65829;-56
2024/03/21 02:54:45;;;;;;;13.10;9.80;;;;;;;1.19;100.00;100797.92;106312;1264;71467;-55
2024/03/21 02:57:13;;;;;;;15.00;9.80;;;;;;;1.19;100.00;100798.63;105737;1264;60492;-55
2024/03/21 02:59:40;;;;;;;14.90;10.80;;;;;;;1.19;100.00;100798.11;105806;1263;60773;-55
2024/03/21 03:02:08;;;;;;;17.40;9.80;;;;;;;1.18;100.00;100798.98;105713;1262;74315;-56
2024/03/21 03:04:35;;;;;;;20.70;9.30;;;;;;;1.16;100.00;100799.67;105677;1262;67812;-56
2024/03/21 03:07:02;;;;;;;15.50;8.60;;;;;;;1.15;100.00;100799.48;105847;1264;73055;-53
2024/03/21 03:09:30;;;;;;;9.00;6.70;;;;;;;1.14;100.00;100804.07;105791;1269;60453;-53
2024/03/21 03:11:57;;;;;;;9.80;6.80;;;;;;;1.14;100.00;100806.38;105733;1260;60419;-54
2024/03/21 03:14:24;;;;;;;8.30;7.40;;;;;;;1.13;100.00;100806.19;105710;1260;72669;-54
2024/03/21 03:16:51;;;;;;;9.10;7.60;;;;;;;1.13;100.00;100807.42;105642;1259;66084;-53
2024/03/21 03:19:18;;;;;;;13.30;8.40;;;;;;;1.15;100.00;100804.26;105739;1265;71548;-54
2024/03/21 03:21:45;;;;;;;16.40;8.80;;;;;;;1.18;100.00;100809.41;105620;1265;61020;-56
2024/03/21 03:24:12;;;;;;;13.00;7.60;;;;;;;1.20;100.00;100813.65;105633;1260;60558;-55
2024/03/21 03:26:39;;;;;;;10.70;7.90;;;;;;;1.21;100.00;100811.00;105635;1260;72657;-55
2024/03/21 03:29:07;;;;;;;11.60;9.20;;;;;;;1.22;100.00;100814.71;105765;1260;67898;-56
2024/03/21 03:31:34;;;;;;;12.20;9.30;;;;;;;1.22;100.00;100817.55;105652;1260;71449;-55
2024/03/21 03:36:47;;;;;;;12.90;9.60;;;;;;;1.24;100.00;100822.35;105635;1260;61170;-56
2024/03/21 03:39:14;;;;;;;12.50;9.80;;;;;;;1.22;100.00;100821.10;105626;1264;73983;-54
2024/03/21 03:41:41;;;;;;;10.30;8.60;;;;;;;1.20;100.00;100822.49;105585;1260;67289;-54
2024/03/21 03:44:09;;;;;;;14.00;8.50;;;;;;;1.17;100.00;100823.55;105538;1265;71506;-54
2024/03/21 03:46:40;;;;;;;12.90;7.90;;;;;;;1.15;100.00;100824.95;105793;1260;60876;-54
2024/03/21 03:49:08;;;;;;;12.40;7.70;;;;;;;1.16;100.00;100829.89;105812;1259;60565;-55
2024/03/21 03:51:35;;;;;;;10.60;7.20;;;;;;;1.17;100.00;100829.56;105731;1266;74245;-54
2024/03/21 03:54:02;;;;;;;12.90;8.70;;;;;;;1.19;100.00;100831.52;105784;1267;65658;-54
2024/03/21 03:56:29;;;;;;;13.30;8.30;;;;;;;1.20;100.00;100833.45;105792;1264;73259;-54
2024/03/21 03:58:56;;;;;;;11.40;7.90;;;;;;;1.21;100.00;100836.98;105702;1260;63242;-52
2024/03/21 04:01:24;;;;;;;11.60;7.70;;;;;;;1.21;100.00;100838.23;105737;1266;62634;-53
2024/03/21 04:03:51;;;;;;;9.00;7.50;;;;;;;1.21;100.00;100839.12;105747;1274;73980;-53
2024/03/21 04:06:18;;;;;;;12.50;9.70;;;;;;;1.20;100.00;100839.29;105796;1260;68720;-54
2024/03/21 04:08:45;;;;;;;15.20;12.10;;;;;;;1.19;100.00;100841.41;105641;1262;72945;-54
2024/03/21 04:11:14;;;;;;;13.80;9.80;;;;;;;1.19;100.00;100843.55;105881;1260;61246;-56
2024/03/21 04:13:41;;;;;;;19.60;12.50;;;;;;;1.17;100.00;100847.41;105852;1259;61319;-55
2024/03/21 04:16:13;;;;;;;13.50;9.40;;;;;;;1.15;100.00;100847.74;105680;1263;74496;-54
2024/03/21 04:18:40;;;;;;;17.80;11.50;;;;;;;1.12;100.00;100847.02;105732;1264;66713;-54
2024/03/21 04:21:11;;;;;;;14.10;10.20;;;;;;;1.08;100.00;100847.35;107000;1260;71408;-54
2024/03/21 04:23:38;;;;;;;13.70;9.30;;;;;;;1.05;100.00;100848.20;105699;1265;61466;-57
2024/03/21 04:26:06;;;;;;;14.70;9.20;;;;;;;1.03;100.00;100847.29;105682;1260;61311;-54
2024/03/21 04:28:33;;;;;;;14.50;8.70;;;;;;;1.02;100.00;100851.02;105671;1260;73951;-54
2024/03/21 04:31:01;;;;;;;16.00;8.30;;;;;;;1.01;100.00;100847.30;105616;1264;65822;-54
2024/03/21 04:33:28;;;;;;;16.80;9.70;;;;;;;1.02;100.00;100850.66;105771;1259;71537;-55
2024/03/21 04:35:55;;;;;;;12.80;8.80;;;;;;;1.04;100.00;100850.84;105822;1265;62585;-53
2024/03/21 04:38:22;;;;;;;13.30;8.70;;;;;;;1.07;100.00;100858.13;105729;1263;61282;-55
2024/03/21 04:41:09;;;;;;;15.70;10.20;;;;;;;1.09;100.00;100858.14;105763;1260;73882;-56
2024/03/21 04:43:37;;;;;;;16.10;10.80;;;;;;;1.12;100.00;100858.86;105583;1265;65958;-54
2024/03/21 04:46:04;;;;;;;14.60;10.60;;;;;;;1.16;100.00;100861.73;105665;1265;72657;-55
2024/03/21 04:48:31;;;;;;;18.90;13.30;;;;;;;1.21;100.00;100860.86;105743;1264;61257;-56
2024/03/21 04:50:59;;;;;;;17.40;12.00;;;;;;;1.25;100.00;100866.56;105726;1265;61557;-55
2024/03/21 04:53:27;;;;;;;16.10;11.80;;;;;;;1.28;100.00;100867.81;107193;1259;74606;-57
2024/03/21 04:55:55;;;;;;;23.50;15.00;;;;;;;1.31;100.00;100868.89;105848;1263;66966;-54
2024/03/21 04:58:22;;;;;;;22.60;15.20;;;;;;;1.34;100.00;100869.64;105656;1264;73218;-54
2024/03/21 05:00:49;;;;;;;21.10;12.20;;;;;;;1.40;100.00;100870.91;105813;1260;63307;-54
2024/03/21 05:03:16;;;;;;;21.10;13.60;;;;;;;1.47;100.00;100867.95;105740;1259;61210;-53
2024/03/21 05:05:43;;;;;;;17.60;10.80;;;;;;;1.58;100.00;100870.13;105787;1263;74589;-55
2024/03/21 05:08:11;;;;;;;18.40;13.20;;;;;;;1.70;100.00;100872.50;105681;1264;67032;-57
2024/03/21 05:10:38;;;;;;;23.70;11.80;;;;;;;1.84;100.00;100871.51;105826;1263;71281;-53
2024/03/21 05:13:05;;;;;;;18.30;11.20;;;;;;;2.00;100.00;100878.66;105806;1260;62540;-58
2024/03/21 05:15:32;;;;;;;18.50;10.50;;;;;;;2.18;100.00;100883.34;105701;1265;61324;-57
2024/03/21 05:17:59;;;;;;;12.40;8.90;;;;;;;2.35;100.00;100883.74;105769;1260;75593;-55
2024/03/21 05:20:27;;;;;;;18.30;11.10;;;;;;;2.49;100.00;100884.85;105761;1265;66571;-58
2024/03/21 05:22:54;;;;;;;17.90;10.70;;;;;;;2.62;100.00;100889.48;105826;1268;72662;-56
2024/03/21 05:25:21;;;;;;;16.20;10.00;;;;;;;2.74;100.00;100887.56;105640;1265;61132;-55
2024/03/21 05:27:48;;;;;;;17.10;11.30;;;;;;;2.82;100.00;100892.53;105825;1260;61847;-60
2024/03/21 05:30:15;;;;;;;20.00;12.00;;;;;;;2.89;100.00;100895.02;105850;1260;73550;-59
2024/03/21 05:32:43;;;;;;;20.00;14.00;;;;;;;2.96;100.00;100893.79;105743;1258;67706;-59
2024/03/21 05:35:10;;;;;;;15.40;12.00;;;;;;;2.98;100.00;100896.08;105832;1260;74260;-55
2024/03/21 05:37:37;;;;;;;16.20;11.80;;;;;;;3.00;100.00;100896.98;105711;1260;62327;-55
2024/03/21 05:40:05;;;;;;;20.40;10.90;;;;;;;3.02;100.00;100898.05;105769;1263;61256;-56
2024/03/21 05:42:32;;;;;;;19.00;11.50;;;;;;;3.07;100.00;100902.65;105685;1269;74648;-55
2024/03/21 05:45:00;;;;;;;17.70;11.40;;;;;;;3.16;100.00;100903.90;105793;1263;65848;-56
2024/03/21 05:47:27;;;;;;;21.60;11.50;;;;;;;3.26;100.00;100909.75;105759;1264;73717;-57
2024/03/21 05:49:54;;;;;;;14.30;8.90;;;;;;;3.37;100.00;100910.09;105729;1261;61348;-55
2024/03/21 05:52:21;;;;;;;17.40;9.50;;;;;;;3.50;100.00;100914.88;105772;1264;61929;-55
2024/03/21 05:54:49;;;;;;;17.10;8.90;;;;;;;3.61;100.00;100917.53;105794;1263;73803;-57
2024/03/21 05:57:17;;;;;;;17.10;10.00;;;;;;;3.68;100.00;100920.89;105634;1265;65621;-57
2024/03/21 05:59:44;;;;;;;11.70;8.40;;;;;;;3.79;100.00;100924.77;105661;1267;71272;-57
2024/03/21 06:02:11;;;;;;;12.50;8.70;;;;;;;3.93;100.00;100927.94;105623;1276;61370;-55
2024/03/21 06:04:38;;;;;;;15.10;9.60;;;;;;;4.03;100.00;100930.39;105646;1259;61321;-53
2024/03/21 06:07:06;;;;;;;17.00;9.10;;;;;;;4.10;100.00;100934.27;105739;1265;74754;-57
2024/03/21 06:09:33;;;;;;;15.50;9.00;;;;;;;4.16;100.00;100939.23;105784;1265;67171;-55
2024/03/21 06:12:00;;;;;;;15.40;9.10;;;;;;;4.22;100.00;100940.64;105846;1260;73256;-54
2024/03/21 06:14:27;;;;;;;11.00;7.90;;;;;;;4.23;100.00;100938.68;105830;1265;61225;-57
2024/03/21 06:16:54;;;;;;;13.40;7.40;;;;;;;4.25;100.00;100945.05;105840;1260;61181;-54
2024/03/21 06:19:22;;;;;;;15.60;8.40;;;;;;;4.28;100.00;100952.68;105810;1266;73804;-59
2024/03/21 06:21:49;;;;;;;12.00;7.40;;;;;;;4.32;100.00;100953.39;106110;1260;67702;-58
2024/03/21 06:24:16;;;;;;;14.90;8.60;;;;;;;4.37;100.00;100959.05;106021;1264;72768;-57
2024/03/21 06:26:44;;;;;;;11.10;6.60;;;;;;;4.38;100.00;100956.92;105984;1265;62097;-56
2024/03/21 06:29:12;;;;;;;18.10;7.60;;;;;;;4.43;100.00;100960.10;108587;1260;60586;-57
2024/03/21 06:31:40;;;;;;;10.00;6.40;;;;;;;4.52;100.00;100962.20;108637;1259;73493;-55
2024/03/21 06:34:07;;;;;;;15.20;7.70;;;;;;;4.61;100.00;100965.34;108716;1260;65956;-57
2024/03/21 06:36:34;;;;;;;10.50;5.20;;;;;;;4.69;100.00;100974.55;108708;1260;73201;-60
2024/03/21 06:39:03;;;;;;;12.80;6.70;;;;;;;4.69;100.00;100973.48;107845;1260;61379;-54
2024/03/21 06:41:30;;;;;;;12.20;5.80;;;;;;;4.64;100.00;100969.61;105551;1265;61296;-56
2024/03/21 06:43:57;;;;;;;9.90;4.90;;;;;;;4.64;100.00;100970.31;105616;1265;74800;-60
2024/03/21 06:46:25;;;;;;;15.20;5.70;;;;;;;4.67;100.00;100966.21;105598;1264;67551;-54
2024/03/21 06:48:52;;;;;;;14.20;6.40;;;;;;;4.72;100.00;100970.09;105762;1260;73365;-55
2024/03/21 06:51:20;;;;;;;8.90;5.60;;;;;;;4.78;100.00;100976.29;105711;1265;62274;-57
2024/03/21 06:53:47;;;;;;;13.20;5.60;;;;;;;4.86;100.00;100977.31;105738;1262;61241;-55
2024/03/21 06:56:17;;;;;;;8.70;5.90;;;;;;;4.96;100.00;100979.91;105703;1260;73448;-56
2024/03/21 06:58:45;;;;;;;9.90;5.80;;;;;;;5.06;100.00;100980.92;105859;1265;66216;-55
2024/03/21 07:01:12;;;;;;;15.20;7.50;;;;;;;5.12;100.00;100984.08;105850;1264;71458;-59
2024/03/21 07:03:40;;;;;;;12.80;6.70;;;;;;;5.17;100.00;100988.69;108769;1259;60909;-54
2024/03/21 07:06:07;;;;;;;10.60;6.00;;;;;;;5.21;100.00;100992.73;108602;1260;59236;-54
2024/03/21 07:08:34;;;;;;;13.40;6.00;;;;;;;5.25;100.00;100994.50;108750;1260;74595;-55
2024/03/21 07:11:01;;;;;;;13.20;7.00;;;;;;;5.27;100.00;100991.45;108620;1260;67143;-59
2024/03/21 07:13:29;;;;;;;17.70;5.60;;;;;;;5.28;100.00;100992.33;108677;1260;71421;-53
2024/03/21 07:15:58;;;;;;;12.20;7.40;;;;;;;5.33;100.00;100995.16;108701;1261;60159;-55
2024/03/21 07:18:25;;;;;;;13.90;6.40;;;;;;;5.39;100.00;100996.52;105956;1265;61241;-55
2024/03/21 07:20:56;;;;;;;12.10;8.50;;;;;;;5.48;100.00;101001.27;105758;1276;74666;-56
2024/03/21 07:23:23;;;;;;;18.60;9.10;;;;;;;5.55;100.00;100996.77;105668;1263;67088;-57
2024/03/21 07:25:51;;;;;;;14.90;8.40;;;;;;;5.60;100.00;101000.83;105582;1259;73288;-55
2024/03/21 07:28:18;;;;;;;17.40;7.10;;;;;;;5.61;100.00;100999.90;105585;1264;61727;-56
2024/03/21 07:30:53;;;;;;;16.60;6.10;;;;;;;5.66;100.00;101006.11;105583;1266;61451;-55
2024/03/21 07:33:20;;;;;;;13.70;7.70;;;;;;;5.68;100.00;101011.98;105924;1265;75164;-55
2024/03/21 07:35:54;;;;;;;14.20;6.60;;;;;;;5.67;100.00;101010.38;105684;1260;67501;-59
2024/03/21 07:38:22;;;;;;;14.50;7.70;;;;;;;5.66;100.00;101015.37;108303;1260;72411;-59
2024/03/21 07:40:56;;;;;;;19.10;9.60;;;;;;;5.63;100.00;101013.77;106079;1260;62043;-56
2024/03/21 07:43:24;;;;;;;14.70;8.30;;;;;;;5.60;100.00;101019.52;107389;1263;62204;-56
2024/03/21 07:45:51;;;;;;;12.30;7.90;;;;;;;5.61;100.00;101018.96;105931;1265;76870;-57
2024/03/21 07:48:18;;;;;;;16.50;7.40;;;;;;;5.68;100.00;101022.84;105575;1265;65771;-56
2024/03/21 07:50:46;;;;;;;15.50;7.90;;;;;;;5.76;100.00;101022.77;105664;1260;72943;-58
2024/03/21 07:53:13;;;;;;;11.10;7.20;;;;;;;5.85;100.00;101025.55;105573;1260;60190;-57
2024/03/21 07:55:43;;;;;;;17.50;9.00;;;;;;;5.97;100.00;101033.13;105703;1265;61413;-55
2024/03/21 07:58:10;;;;;;;9.50;6.80;;;;;;;6.08;100.00;101038.54;107241;1263;73455;-55
2024/03/21 08:00:37;;;;;;;21.80;9.40;;;;;;;6.17;100.00;101038.45;105787;1263;67327;-55
2024/03/21 08:03:04;;;;;;;10.50;7.10;;;;;;;6.27;100.00;101044.59;105657;1263;73846;-56
2024/03/21 08:05:31;;;;;;;13.80;6.50;;;;;;;6.33;100.00;101047.73;105672;1274;61250;-55
2024/03/21 08:08:00;;;;;;;13.90;7.70;;;;;;;6.36;100.00;101046.82;105517;1268;61336;-56
2024/03/21 08:10:28;;;;;;;14.80;8.80;;;;;;;6.39;100.00;101055.33;108649;1264;73472;-56
2024/03/21 08:12:55;;;;;;;17.50;9.10;;;;;;;6.46;100.00;101057.23;108803;1260;67180;-56
2024/03/21 08:15:22;;;;;;;7.80;5.60;;;;;;;6.51;100.00;101066.61;108575;1260;72733;-56
2024/03/21 08:17:52;;;;;;;18.10;6.00;;;;;;;6.57;100.00;101066.02;107410;1260;61377;-54
2024/03/21 08:20:19;;;;;;;9.90;6.00;;;;;;;6.64;100.00;101070.21;105710;1261;61429;-56
2024/03/21 08:22:46;;;;;;;11.70;5.50;;;;;;;6.69;100.00;101071.23;105652;1266;74726;-57
2024/03/21 08:25:15;;;;;;;11.90;7.60;;;;;;;6.74;100.00;101071.16;105622;1266;66700;-56
2024/03/21 08:27:43;;;;;;;17.80;7.00;;;;;;;6.79;100.00;101075.40;105699;1274;74756;-56
2024/03/21 08:30:10;;;;;;;10.20;6.50;;;;;;;6.86;100.00;101083.70;108706;1259;60112;-61
2024/03/21 08:32:37;;;;;;;17.30;6.20;;;;;;;6.93;100.00;101085.40;106418;1261;61257;-57
2024/03/21 08:35:05;;;;;;;15.90;7.60;;;;;;;6.98;100.00;101081.23;105735;1265;73438;-56
2024/03/21 08:37:32;;;;;;;15.50;7.20;;;;;;;7.05;100.00;101089.88;105945;1262;67569;-55
2024/03/21 08:40:00;;;;;;;14.90;5.50;;;;;;;7.10;100.00;101091.25;105960;1259;73252;-57
2024/03/21 08:42:28;;;;;;;11.70;7.20;;;;;;;7.12;100.00;101096.77;105874;1260;61369;-54
2024/03/21 08:44:57;;;;;;;21.00;8.10;;;;;;;7.15;100.00;101099.39;106347;1257;61269;-58
2024/03/21 08:47:25;;;;;;;11.40;6.10;;;;;;;7.17;100.00;101100.26;105874;1259;73445;-55
2024/03/21 08:49:52;;;;;;;11.10;6.30;;;;;;;7.19;100.00;101100.59;105763;1271;66862;-56
2024/03/21 08:52:19;;;;;;;11.60;6.60;;;;;;;7.20;100.00;101102.38;105829;1260;70885;-56
2024/03/21 08:54:46;;;;;;;16.00;6.50;;;;;;;7.25;100.00;101108.73;105908;1262;63142;-58
2024/03/21 08:57:13;;;;;;;10.10;4.60;;;;;;;7.28;100.00;101110.11;105979;1258;61272;-56
2024/03/21 08:59:41;;;;;;;11.90;4.70;;;;;;;7.36;100.00;101110.55;105892;1262;74791;-60
2024/03/21 09:02:09;;;;;;;11.80;5.20;;;;;;;7.46;100.00;101115.41;105926;1264;68373;-61
2024/03/21 09:04:37;;;;;;;16.10;5.80;;;;;;;7.54;100.00;101111.36;105917;1262;71989;-55
2024/03/21 09:07:05;;;;;;;11.50;6.20;;;;;;;7.64;100.00;101117.46;105853;1261;61327;-56
2024/03/21 09:09:34;;;;;;;12.80;6.10;;;;;;;7.71;100.00;101118.08;106558;1260;61279;-56
2024/03/21 09:12:05;;;;;;;15.00;7.10;;;;;;;7.77;100.00;101125.13;106050;1260;73503;-55
2024/03/21 09:14:33;;;;;;;13.30;6.70;;;;;;;7.82;100.00;101127.56;105880;1269;66992;-58
2024/03/21 09:17:00;;;;;;;16.50;6.70;;;;;;;7.86;100.00;101125.35;105911;1260;72723;-56
2024/03/21 09:19:28;;;;;;;13.50;7.10;;;;;;;7.85;100.00;101131.44;105879;1259;61201;-56
2024/03/21 09:21:56;;;;;;;20.40;8.20;;;;;;;7.85;100.00;101138.21;105862;1264;61800;-56
2024/03/21 09:24:24;;;;;;;15.30;7.60;;;;;;;7.89;100.00;101134.78;105930;1266;76884;-56
2024/03/21 09:26:51;;;;;;;14.50;7.00;;;;;;;7.94;100.00;101136.83;105874;1277;68286;-57
2024/03/21 09:29:18;;;;;;;14.20;7.80;;;;;;;7.98;100.00;101139.83;105875;1261;73198;-56
2024/03/21 09:31:45;;;;;;;16.70;7.80;;;;;;;7.97;100.00;101136.63;105829;1260;61131;-55
2024/03/21 09:34:12;;;;;;;20.50;8.20;;;;;;;8.00;100.00;101135.67;105763;1271;61690;-54
2024/03/21 09:36:40;;;;;;;15.80;8.20;;;;;;;8.03;100.00;101137.59;105794;1263;73888;-54
2024/03/21 09:39:07;;;;;;;15.10;7.90;;;;;;;8.06;100.00;101137.20;105795;1261;69527;-56
2024/03/21 09:41:34;;;;;;;12.90;8.20;;;;;;;8.09;100.00;101137.13;105713;1261;73319;-56
2024/03/21 09:44:01;;;;;;;18.20;8.40;;;;;;;8.13;100.00;101140.65;105732;1269;62175;-59
2024/03/21 09:46:30;;;;;;;23.30;10.40;;;;;;;8.19;100.00;101140.91;105717;1262;61347;-56
2024/03/21 09:48:57;;;;;;;12.70;7.80;;;;;;;8.25;100.00;101144.02;106352;1260;73921;-55
2024/03/21 09:51:28;;;;;;;13.00;7.80;;;;;;;8.32;100.00;101142.32;105969;1260;65949;-60
2024/03/21 09:53:55;;;;;;;18.50;8.40;;;;;;;8.42;100.00;101142.17;105936;1269;71819;-54
2024/03/21 09:56:25;;;;;;;11.50;8.10;;;;;;;8.48;100.00;101146.89;106013;1260;61243;-55
2024/03/21 09:58:52;;;;;;;17.50;7.70;;;;;;;8.54;100.00;101150.00;105943;1263;62143;-55
2024/03/21 10:01:21;;;;;;;18.00;7.50;;;;;;;8.61;100.00;101149.70;105987;1260;77588;-57
2024/03/21 10:03:56;;;;;;;15.90;6.00;;;;;;;8.68;100.00;101152.06;106071;1263;66736;-56
2024/03/21 10:06:24;;;;;;;14.90;7.50;;;;;;;8.76;100.00;101160.34;105968;1265;72768;-56
2024/03/21 10:08:52;;;;;;;15.20;5.10;;;;;;;8.84;100.00;101161.62;105957;1258;61260;-55
2024/03/21 10:11:19;;;;;;;11.60;5.30;;;;;;;8.92;100.00;101169.16;106018;1260;61422;-58
2024/03/21 10:13:49;;;;;;;12.10;5.90;;;;;;;9.00;100.00;101168.83;106090;1254;76897;-55
2024/03/21 10:16:18;;;;;;;13.10;5.80;;;;;;;9.05;100.00;101172.48;105883;1262;66338;-56
2024/03/21 10:18:45;;;;;;;12.90;5.70;;;;;;;9.11;100.00;101176.66;106004;1260;71627;-56
2024/03/21 10:21:16;;;;;;;14.10;5.80;;;;;;;9.18;100.00;101179.93;105902;1274;61337;-56
2024/03/21 10:23:43;;;;;;;13.20;5.90;;;;;;;9.24;100.00;101184.83;105906;1270;61350;-54
2024/03/21 10:26:14;;;;;;;12.40;4.90;;;;;;;9.27;100.00;101184.58;105934;1260;72445;-57
2024/03/21 10:28:42;;;;;;;14.10;4.50;;;;;;;9.28;100.00;101187.80;106026;1260;69087;-56
2024/03/21 10:31:13;;;;;;;11.50;4.10;;;;;;;9.29;100.00;101187.76;105857;1261;72589;-55
2024/03/21 10:33:44;;;;;;;9.50;4.30;;;;;;;9.33;100.00;101188.58;106499;1260;61199;-57
2024/03/21 10:36:12;;;;;;;14.20;4.60;;;;;;;9.37;100.00;101189.92;106127;1262;61228;-56
2024/03/21 10:38:40;;;;;;;12.60;4.70;;;;;;;9.36;100.00;101194.23;105926;1260;75373;-56
2024/03/21 10:41:32;;;;;;;8.50;4.30;;;;;;;9.37;100.00;101192.61;105940;1257;66905;-57
2024/03/21 10:44:01;;;;;;;11.20;4.40;;;;;;;9.40;100.00;101195.25;105942;1261;73154;-58
2024/03/21 10:46:29;;;;;;;16.40;4.20;;;;;;;9.39;100.00;101188.45;106020;1257;61397;-57
2024/03/21 10:48:57;;;;;;;15.80;4.60;;;;;;;9.40;100.00;101193.63;105957;1261;61198;-61
2024/03/21 10:51:24;;;;;;;11.20;3.80;;;;;;;9.42;100.00;101191.64;107304;1255;73438;-55
2024/03/21 10:53:56;;;;;;;13.70;5.10;;;;;;;9.43;100.00;101188.73;106083;1257;65855;-55
2024/03/21 10:56:31;;;;;;;14.80;3.90;;;;;;;9.48;100.00;101196.15;105989;1260;72572;-58
2024/03/21 10:58:58;;;;;;;14.30;3.30;;;;;;;9.55;100.00;101193.84;106203;1263;61230;-55
2024/03/21 11:01:37;;;;;;;11.00;3.30;;;;;;;9.63;100.00;101195.48;108862;1257;62186;-59
2024/03/21 11:04:05;;;;;;;12.50;4.00;;;;;;;9.67;100.00;101197.91;108982;1257;74137;-57
2024/03/21 11:06:36;;;;;;;7.30;3.20;;;;;;;9.71;100.00;101200.13;109155;1257;65647;-57
2024/03/21 11:09:04;;;;;;;12.50;3.30;;;;;;;9.77;100.00;101199.10;108876;1256;73172;-56
2024/03/21 11:11:31;;;;;;;10.20;3.20;;;;;;;9.84;100.00;101203.78;109002;1257;60687;-56
2024/03/21 11:14:00;;;;;;;5.70;3.60;;;;;;;9.92;100.00;101209.17;108799;1256;59022;-56
2024/03/21 11:16:28;;;;;;;13.30;3.70;;;;;;;9.94;100.00;101212.55;109020;1255;73417;-57